createdAt,value
2022-12-03T00:00:12.203Z,101187.95
2022-12-03T00:02:59.633Z,101185.04
2022-12-03T00:05:26.649Z,101188.66
2022-12-03T00:07:53.561Z,101185.91
2022-12-03T00:10:20.402Z,101189.51
2022-12-03T00:12:47.270Z,101191.73
2022-12-03T00:15:14.156Z,101191.21
2022-12-03T00:17:41.033Z,101190.52
2022-12-03T00:20:08.778Z,101185.55
2022-12-03T00:22:35.945Z,101189.50
2022-12-03T00:25:02.789Z,101186.08
2022-12-03T00:27:29.472Z,101185.56
2022-12-03T00:29:56.219Z,101191.40
2022-12-03T00:32:23.015Z,101191.73
2022-12-03T00:34:50.554Z,101198.77
2022-12-03T00:37:17.515Z,101201.88
2022-12-03T00:39:44.526Z,101205.81
2022-12-03T00:42:11.644Z,101208.58
2022-12-03T00:44:38.488Z,101208.92
2022-12-03T00:47:05.550Z,101210.80
2022-12-03T00:49:32.498Z,101216.30
2022-12-03T00:51:59.454Z,101215.11
2022-12-03T00:54:31.570Z,101220.44
2022-12-03T00:56:59.153Z,101220.79
2022-12-03T00:59:26.011Z,101227.66
2022-12-03T01:01:53.007Z,101232.27
2022-12-03T01:04:19.984Z,101225.41
2022-12-03T01:06:47.121Z,101223.54
2022-12-03T01:09:14.047Z,101222.52
2022-12-03T01:11:41.255Z,101225.58
2022-12-03T01:14:13.197Z,101223.50
2022-12-03T01:16:41.387Z,101224.88
2022-12-03T01:19:10.054Z,101223.33
2022-12-03T01:21:37.390Z,101223.86
2022-12-03T01:24:04.742Z,101229.50
2022-12-03T01:26:31.867Z,101228.66
2022-12-03T01:28:59.365Z,101227.65
2022-12-03T01:31:44.616Z,101231.60
2022-12-03T01:34:11.666Z,101228.36
2022-12-03T01:36:38.605Z,101230.61
2022-12-03T01:39:05.467Z,101234.02
2022-12-03T01:41:33.361Z,101237.95
2022-12-03T01:44:00.977Z,101233.64
2022-12-03T01:46:46.158Z,101232.45
2022-12-03T01:49:20.673Z,101236.41
2022-12-03T01:51:49.285Z,101239.85
2022-12-03T01:54:20.147Z,101242.93
2022-12-03T01:56:47.536Z,101245.34
2022-12-03T01:59:17.697Z,101245.52
2022-12-03T02:01:45.046Z,101241.58
2022-12-03T02:04:14.010Z,101245.17
2022-12-03T02:06:43.019Z,101245.69
2022-12-03T02:09:12.176Z,101244.65
2022-12-03T02:11:45.355Z,101244.64
2022-12-03T02:14:18.340Z,101243.43
2022-12-03T02:16:46.524Z,101244.61
2022-12-03T02:19:23.754Z,101246.52
2022-12-03T02:21:58.567Z,101249.60
2022-12-03T02:24:41.606Z,101255.44
2022-12-03T02:27:08.893Z,101252.69
2022-12-03T02:29:35.927Z,101249.09
2022-12-03T02:32:02.938Z,101251.52
2022-12-03T02:34:42.048Z,101248.80
2022-12-03T02:37:15.037Z,101247.94
2022-12-03T02:39:47.810Z,101253.59
2022-12-03T02:42:33.247Z,101253.08
2022-12-03T02:45:05.657Z,101247.77
2022-12-03T02:47:38.306Z,101250.67
2022-12-03T02:50:05.820Z,101254.11
2022-12-03T02:52:32.684Z,101249.66
2022-12-03T02:55:01.098Z,101249.00
2022-12-03T02:57:28.163Z,101251.40
2022-12-03T02:59:55.751Z,101255.02
2022-12-03T03:02:23.024Z,101256.73
2022-12-03T03:04:50.940Z,101258.79
2022-12-03T03:07:18.331Z,101262.56
2022-12-03T03:09:46.729Z,101266.69
2022-12-03T03:12:13.854Z,101265.83
2022-12-03T03:14:41.411Z,101265.64
2022-12-03T03:17:08.344Z,101264.27
2022-12-03T03:19:35.283Z,101261.70
2022-12-03T03:22:02.074Z,101262.91
2022-12-03T03:24:29.245Z,101263.59
2022-12-03T03:26:56.163Z,101260.84
2022-12-03T03:29:23.326Z,101259.84
2022-12-03T03:31:51.237Z,101258.63
2022-12-03T03:34:18.354Z,101257.77
2022-12-03T03:36:45.731Z,101257.59
2022-12-03T03:39:13.526Z,101258.96
2022-12-03T03:41:41.624Z,101257.41
2022-12-03T03:44:09.455Z,101255.70
2022-12-03T03:46:38.017Z,101258.80
2022-12-03T03:49:05.755Z,101259.51
2022-12-03T03:51:35.356Z,101264.98
2022-12-03T03:54:03.837Z,101265.16
2022-12-03T03:56:33.176Z,101264.50
2022-12-03T03:59:01.051Z,101269.14
2022-12-03T04:01:29.225Z,101266.73
2022-12-03T04:03:59.170Z,101270.69
2022-12-03T04:06:27.570Z,101272.76
2022-12-03T04:08:54.549Z,101277.39
2022-12-03T04:11:40.486Z,101274.48
2022-12-03T04:14:07.412Z,101280.63
2022-12-03T04:16:34.402Z,101280.46
2022-12-03T04:19:01.448Z,101278.59
2022-12-03T04:21:47.180Z,101276.86
2022-12-03T04:24:14.084Z,101276.71
2022-12-03T04:27:00.603Z,101283.05
2022-12-03T04:29:27.409Z,101280.64
2022-12-03T04:32:13.149Z,101281.67
2022-12-03T04:34:58.667Z,101283.58
2022-12-03T04:37:25.570Z,101286.84
2022-12-03T04:39:52.524Z,101287.38
2022-12-03T04:42:19.440Z,101290.98
2022-12-03T04:44:46.816Z,101296.14
2022-12-03T04:47:19.087Z,101302.48
2022-12-03T04:49:50.076Z,101300.41
2022-12-03T04:52:18.727Z,101302.31
2022-12-03T04:54:46.103Z,101305.38
2022-12-03T04:57:13.509Z,101307.79
2022-12-03T04:59:40.543Z,101306.94
2022-12-03T05:02:07.744Z,101309.48
2022-12-03T05:04:34.888Z,101314.64
2022-12-03T05:07:02.373Z,101315.85
2022-12-03T05:09:29.372Z,101313.11
2022-12-03T05:11:56.407Z,101312.63
2022-12-03T05:14:23.463Z,101312.98
2022-12-03T05:16:50.454Z,101316.27
2022-12-03T05:19:17.439Z,101319.34
2022-12-03T05:21:44.367Z,101314.73
2022-12-03T05:24:11.190Z,101315.23
2022-12-03T05:26:38.304Z,101321.58
2022-12-03T05:29:05.108Z,101325.00
2022-12-03T05:31:32.255Z,101327.58
2022-12-03T05:33:59.347Z,101329.12
2022-12-03T05:36:26.445Z,101334.96
2022-12-03T05:38:53.480Z,101335.98
2022-12-03T05:41:39.986Z,101335.28
2022-12-03T05:44:06.941Z,101339.75
2022-12-03T05:46:34.320Z,101344.72
2022-12-03T05:49:01.279Z,101344.88
2022-12-03T05:51:28.776Z,101348.33
2022-12-03T05:53:57.342Z,101350.89
2022-12-03T05:56:24.152Z,101356.58
2022-12-03T05:58:51.224Z,101358.64
2022-12-03T06:01:18.135Z,101359.66
2022-12-03T06:03:45.232Z,101363.93
2022-12-03T06:06:12.284Z,101360.50
2022-12-03T06:08:39.228Z,101361.52
2022-12-03T06:11:06.343Z,101358.09
2022-12-03T06:13:33.827Z,101363.05
2022-12-03T06:16:01.322Z,101362.53
2022-12-03T06:18:28.387Z,101366.80
2022-12-03T06:20:55.495Z,101372.46
2022-12-03T06:23:22.618Z,101377.08
2022-12-03T06:25:49.732Z,101381.52
2022-12-03T06:28:16.743Z,101383.09
2022-12-03T06:30:44.181Z,101385.46
2022-12-03T06:33:11.275Z,101382.02
2022-12-03T06:35:38.153Z,101382.90
2022-12-03T06:38:05.215Z,101384.62
2022-12-03T06:40:32.361Z,101384.11
2022-12-03T06:42:59.244Z,101382.73
2022-12-03T06:45:26.119Z,101379.83
2022-12-03T06:47:53.425Z,101387.70
2022-12-03T06:50:20.586Z,101387.54
2022-12-03T06:52:47.505Z,101392.48
2022-12-03T06:55:14.370Z,101389.89
2022-12-03T06:57:41.284Z,101385.96
2022-12-03T07:00:09.710Z,101389.54
2022-12-03T07:02:36.782Z,101392.46
2022-12-03T07:05:04.411Z,101393.32
2022-12-03T07:07:31.994Z,101392.98
2022-12-03T07:09:58.837Z,101394.52
2022-12-03T07:12:25.776Z,101395.03
2022-12-03T07:14:53.117Z,101396.23
2022-12-03T07:17:20.555Z,101400.17
2022-12-03T07:19:47.637Z,101399.13
2022-12-03T07:22:14.669Z,101402.03
2022-12-03T07:24:41.742Z,101402.19
2022-12-03T07:27:08.661Z,101399.63
2022-12-03T07:29:35.714Z,101399.79
2022-12-03T07:32:02.700Z,101401.15
2022-12-03T07:34:29.543Z,101398.91
2022-12-03T07:36:56.517Z,101401.65
2022-12-03T07:39:23.523Z,101400.44
2022-12-03T07:41:50.559Z,101400.77
2022-12-03T07:44:19.384Z,101405.39
2022-12-03T07:46:46.645Z,101402.30
2022-12-03T07:49:13.693Z,101400.23
2022-12-03T07:51:40.858Z,101400.56
2022-12-03T07:54:08.252Z,101403.66
2022-12-03T07:56:35.560Z,101399.20
2022-12-03T07:59:02.370Z,101404.16
2022-12-03T08:01:31.286Z,101404.88
2022-12-03T08:03:58.463Z,101408.65
2022-12-03T08:06:25.526Z,101409.16
2022-12-03T08:08:52.559Z,101418.25
2022-12-03T08:11:19.521Z,101421.31
2022-12-03T08:13:47.042Z,101422.86
2022-12-03T08:16:19.568Z,101421.16
2022-12-03T08:18:48.926Z,101419.07
2022-12-03T08:21:21.609Z,101421.13
2022-12-03T08:23:48.705Z,101424.56
2022-12-03T08:26:24.436Z,101421.48
2022-12-03T08:28:52.620Z,101423.20
2022-12-03T08:31:30.842Z,101423.71
2022-12-03T08:34:21.753Z,101428.33
2022-12-03T08:36:55.931Z,101430.73
2022-12-03T08:39:34.434Z,101426.79
2022-12-03T08:42:31.000Z,101429.89
2022-12-03T08:45:19.647Z,101424.91
2022-12-03T08:47:46.473Z,101419.77
2022-12-03T08:50:27.344Z,101419.77
2022-12-03T08:52:58.905Z,101416.83
2022-12-03T08:55:35.135Z,101421.97
2022-12-03T08:58:30.775Z,101421.13
2022-12-03T09:01:25.565Z,101416.34
2022-12-03T09:03:54.320Z,101413.27
2022-12-03T09:06:22.198Z,101413.95
2022-12-03T09:08:49.154Z,101416.17
2022-12-03T09:11:16.447Z,101419.40
2022-12-03T09:13:43.333Z,101416.13
2022-12-03T09:16:10.141Z,101416.30
2022-12-03T09:18:36.923Z,101410.65
2022-12-03T09:21:03.870Z,101416.14
2022-12-03T09:23:30.572Z,101412.22
2022-12-03T09:25:59.123Z,101412.41
2022-12-03T09:28:26.112Z,101416.53
2022-12-03T09:30:52.864Z,101413.80
2022-12-03T09:33:19.691Z,101413.28
2022-12-03T09:35:46.464Z,101413.96
2022-12-03T09:38:13.279Z,101414.63
2022-12-03T09:40:41.096Z,101415.30
2022-12-03T09:43:08.479Z,101417.18
2022-12-03T09:45:35.288Z,101416.14
2022-12-03T09:48:03.522Z,101412.70
2022-12-03T09:50:31.547Z,101409.80
2022-12-03T09:53:01.908Z,101406.18
2022-12-03T09:55:29.773Z,101409.08
2022-12-03T09:57:57.236Z,101407.86
2022-12-03T10:00:28.737Z,101403.38
2022-12-03T10:03:02.284Z,101405.73
2022-12-03T10:05:30.585Z,101400.70
2022-12-03T10:08:05.138Z,101393.96
2022-12-03T10:10:34.265Z,101391.52
2022-12-03T10:13:02.214Z,101389.73
2022-12-03T10:15:29.360Z,101394.13
2022-12-03T10:17:57.094Z,101389.98
2022-12-03T10:20:25.712Z,101391.84
2022-12-03T10:22:52.749Z,101385.80
2022-12-03T10:25:21.606Z,101388.80
2022-12-03T10:28:03.413Z,101393.11
2022-12-03T10:30:30.688Z,101391.88
2022-12-03T10:33:01.971Z,101392.19
2022-12-03T10:35:46.799Z,101391.71
2022-12-03T10:38:16.673Z,101398.25
2022-12-03T10:40:44.238Z,101396.73
2022-12-03T10:43:25.163Z,101395.67
2022-12-03T10:46:11.427Z,101391.41
2022-12-03T10:48:38.387Z,101392.77
2022-12-03T10:51:20.535Z,101395.17
2022-12-03T10:53:48.946Z,101396.69
2022-12-03T10:56:25.968Z,101399.73
2022-12-03T10:58:53.217Z,101396.27
2022-12-03T11:01:23.012Z,101397.44
2022-12-03T11:03:50.798Z,101393.77
2022-12-03T11:06:21.290Z,101392.50
2022-12-03T11:08:56.522Z,101387.20
2022-12-03T11:11:30.481Z,101387.91
2022-12-03T11:14:03.144Z,101387.72
2022-12-03T11:16:39.130Z,101387.32
2022-12-03T11:19:11.864Z,101386.94
2022-12-03T11:22:04.634Z,101384.50
2022-12-03T11:24:33.632Z,101383.06
2022-12-03T11:27:09.236Z,101376.15
2022-12-03T11:29:51.378Z,101371.55
2022-12-03T11:32:42.751Z,101368.08
2022-12-03T11:35:35.441Z,101370.88
2022-12-03T11:38:40.954Z,101373.59
2022-12-03T11:41:20.812Z,101368.40
2022-12-03T11:43:56.489Z,101371.79
2022-12-03T11:46:38.258Z,101370.90
2022-12-03T11:49:23.556Z,101372.20
2022-12-03T11:51:51.060Z,101367.90
2022-12-03T11:54:22.613Z,101368.77
2022-12-03T11:56:50.253Z,101368.95
2022-12-03T11:59:18.994Z,101373.75
2022-12-03T12:01:46.218Z,101376.71
2022-12-03T12:04:37.451Z,101386.17
2022-12-03T12:07:04.462Z,101389.95
2022-12-03T12:09:54.663Z,101387.21
2022-12-03T12:12:37.288Z,101389.44
2022-12-03T12:15:33.005Z,101390.05
2022-12-03T12:18:37.838Z,101387.17
2022-12-03T12:21:41.021Z,101389.24
2022-12-03T12:24:31.340Z,101391.34
2022-12-03T12:27:05.927Z,101395.80
2022-12-03T12:29:34.188Z,101402.83
2022-12-03T12:32:45.359Z,101404.77
2022-12-03T12:35:19.620Z,101403.95
2022-12-03T12:38:15.821Z,101408.92
2022-12-03T12:40:46.136Z,101412.34
2022-12-03T12:43:27.397Z,101411.36
2022-12-03T12:45:56.367Z,101414.45
2022-12-03T12:48:34.376Z,101419.42
2022-12-03T12:51:14.102Z,101423.00
2022-12-03T12:53:42.385Z,101420.14
2022-12-03T12:56:30.004Z,101422.55
2022-12-03T12:59:00.997Z,101424.08
2022-12-03T13:01:30.419Z,101422.52
2022-12-03T13:03:59.007Z,101422.82
2022-12-03T13:06:28.239Z,101425.56
2022-12-03T13:08:55.166Z,101429.33
2022-12-03T13:11:27.857Z,101427.24
2022-12-03T13:13:54.596Z,101423.65
2022-12-03T13:16:32.152Z,101422.96
2022-12-03T13:19:00.452Z,101426.41
2022-12-03T13:21:38.910Z,101428.14
2022-12-03T13:24:35.521Z,101425.56
2022-12-03T13:27:20.454Z,101427.62
2022-12-03T13:29:50.816Z,101431.39
2022-12-03T13:32:22.361Z,101428.83
2022-12-03T13:34:52.024Z,101429.17
2022-12-03T13:37:24.740Z,101430.20
2022-12-03T13:39:54.493Z,101433.66
2022-12-03T13:42:40.111Z,101440.70
2022-12-03T13:45:15.756Z,101443.29
2022-12-03T13:48:03.629Z,101442.77
2022-12-03T13:50:43.397Z,101443.12
2022-12-03T13:53:21.565Z,101445.35
2022-12-03T13:55:51.823Z,101444.50
2022-12-03T13:58:18.795Z,101444.52
2022-12-03T14:00:45.701Z,101444.88
2022-12-03T14:03:12.585Z,101446.77
2022-12-03T14:05:39.503Z,101447.79
2022-12-03T14:08:06.658Z,101449.68
2022-12-03T14:10:33.431Z,101449.34
2022-12-03T14:13:00.336Z,101451.40
2022-12-03T14:15:27.072Z,101451.21
2022-12-03T14:17:53.847Z,101452.41
2022-12-03T14:20:21.538Z,101455.67
2022-12-03T14:22:48.452Z,101457.41
2022-12-03T14:25:15.369Z,101454.52
2022-12-03T14:27:42.058Z,101457.63
2022-12-03T14:30:13.018Z,101459.69
2022-12-03T14:32:39.758Z,101463.80
2022-12-03T14:35:10.092Z,101468.46
2022-12-03T14:37:37.146Z,101470.35
2022-12-03T14:40:06.425Z,101476.55
2022-12-03T14:42:33.123Z,101477.06
2022-12-03T14:44:59.987Z,101479.29
2022-12-03T14:47:26.693Z,101482.89
2022-12-03T14:49:53.701Z,101487.02
2022-12-03T14:52:20.991Z,101491.14
2022-12-03T14:54:47.716Z,101491.48
2022-12-03T14:57:15.333Z,101494.73
2022-12-03T14:59:43.012Z,101491.11
2022-12-03T15:02:11.251Z,101492.16
2022-12-03T15:04:39.373Z,101493.70
2022-12-03T15:07:06.939Z,101499.55
2022-12-03T15:09:34.182Z,101505.03
2022-12-03T15:12:03.588Z,101504.36
2022-12-03T15:14:30.556Z,101503.67
2022-12-03T15:16:57.498Z,101507.61
2022-12-03T15:19:24.292Z,101511.91
2022-12-03T15:21:51.018Z,101516.02
2022-12-03T15:24:17.764Z,101516.56
2022-12-03T15:26:44.517Z,101514.84
2022-12-03T15:29:12.089Z,101516.39
2022-12-03T15:31:39.139Z,101516.90
2022-12-03T15:34:06.563Z,101518.45
2022-12-03T15:36:33.334Z,101520.33
2022-12-03T15:39:00.230Z,101520.69
2022-12-03T15:41:30.066Z,101527.02
2022-12-03T15:43:59.572Z,101529.25
2022-12-03T15:46:27.396Z,101531.17
2022-12-03T15:48:54.863Z,101533.06
2022-12-03T15:51:21.870Z,101535.97
2022-12-03T15:53:48.560Z,101533.91
2022-12-03T15:56:15.536Z,101535.45
2022-12-03T15:58:42.397Z,101539.74
2022-12-03T16:01:09.603Z,101542.83
2022-12-03T16:03:37.160Z,101542.30
2022-12-03T16:06:04.224Z,101549.20
2022-12-03T16:08:31.044Z,101549.03
2022-12-03T16:10:57.895Z,101552.63
2022-12-03T16:13:24.715Z,101554.36
2022-12-03T16:15:51.683Z,101558.13
2022-12-03T16:18:18.453Z,101558.65
2022-12-03T16:20:45.473Z,101565.52
2022-12-03T16:23:12.285Z,101567.40
2022-12-03T16:25:38.960Z,101567.73
2022-12-03T16:28:06.917Z,101569.09
2022-12-03T16:30:33.926Z,101572.17
2022-12-03T16:33:00.746Z,101573.38
2022-12-03T16:35:27.606Z,101569.77
2022-12-03T16:37:54.399Z,101571.65
2022-12-03T16:40:21.100Z,101574.39
2022-12-03T16:42:47.915Z,101576.30
2022-12-03T16:45:20.880Z,101578.02
2022-12-03T16:47:47.958Z,101577.52
2022-12-03T16:50:21.841Z,101579.94
2022-12-03T16:52:54.418Z,101582.50
2022-12-03T16:55:21.144Z,101583.70
2022-12-03T16:57:47.816Z,101584.05
2022-12-03T17:00:15.554Z,101583.74
2022-12-03T17:02:42.401Z,101588.03
2022-12-03T17:05:09.271Z,101591.27
2022-12-03T17:07:36.058Z,101591.96
2022-12-03T17:10:03.731Z,101589.39
2022-12-03T17:13:00.689Z,101591.79
2022-12-03T17:15:19.442Z,101601.25
2022-12-03T17:17:46.258Z,101603.66
2022-12-03T17:20:14.181Z,101608.99
2022-12-03T17:22:41.369Z,101608.14
2022-12-03T17:25:09.834Z,101612.59
2022-12-03T17:27:42.062Z,101613.09
2022-12-03T17:30:13.030Z,101617.55
2022-12-03T17:32:39.804Z,101617.23
2022-12-03T17:35:07.509Z,101620.31
2022-12-03T17:37:34.760Z,101619.09
2022-12-03T17:40:02.188Z,101620.65
2022-12-03T17:42:28.975Z,101622.02
2022-12-03T17:44:55.735Z,101615.83
2022-12-03T17:47:24.321Z,101616.01
2022-12-03T17:49:51.075Z,101621.84
2022-12-03T17:52:18.034Z,101622.02
2022-12-03T17:55:09.104Z,101622.36
2022-12-03T17:57:31.615Z,101624.44
2022-12-03T17:59:58.349Z,101624.45
2022-12-03T18:02:25.155Z,101623.40
2022-12-03T18:04:52.351Z,101622.21
2022-12-03T18:07:19.011Z,101622.02
2022-12-03T18:09:45.877Z,101621.16
2022-12-03T18:12:12.842Z,101619.95
2022-12-03T18:14:39.681Z,101622.54
2022-12-03T18:17:06.458Z,101625.64
2022-12-03T18:19:33.379Z,101624.27
2022-12-03T18:22:00.283Z,101626.85
2022-12-03T18:24:27.016Z,101627.52
2022-12-03T18:26:54.847Z,101627.20
2022-12-03T18:29:21.761Z,101631.33
2022-12-03T18:31:48.539Z,101629.27
2022-12-03T18:34:15.377Z,101628.95
2022-12-03T18:36:42.396Z,101627.24
2022-12-03T18:39:17.865Z,101624.34
2022-12-03T18:41:44.638Z,101628.29
2022-12-03T18:44:11.747Z,101628.82
2022-12-03T18:46:53.565Z,101634.30
2022-12-03T18:49:21.534Z,101634.82
2022-12-03T18:51:48.661Z,101631.05
2022-12-03T18:54:16.477Z,101632.41
2022-12-03T18:56:43.314Z,101629.00
2022-12-03T18:59:10.738Z,101630.37
2022-12-03T19:01:37.683Z,101633.29
2022-12-03T19:04:04.780Z,101639.13
2022-12-03T19:06:31.780Z,101638.80
2022-12-03T19:08:58.736Z,101640.70
2022-12-03T19:11:26.082Z,101637.95
2022-12-03T19:13:53.014Z,101640.02
2022-12-03T19:16:20.137Z,101637.10
2022-12-03T19:18:48.545Z,101637.45
2022-12-03T19:21:16.441Z,101638.81
2022-12-03T19:24:04.283Z,101644.83
2022-12-03T19:26:30.672Z,101646.03
2022-12-03T19:28:57.916Z,101646.02
2022-12-03T19:31:24.733Z,101641.40
2022-12-03T19:33:53.810Z,101642.77
2022-12-03T19:36:26.771Z,101648.09
2022-12-03T19:38:57.350Z,101652.71
2022-12-03T19:41:27.505Z,101651.15
2022-12-03T19:43:56.025Z,101653.58
2022-12-03T19:46:25.724Z,101651.17
2022-12-03T19:48:54.311Z,101655.79
2022-12-03T19:51:36.733Z,101661.28
2022-12-03T19:54:06.387Z,101665.58
2022-12-03T19:56:33.701Z,101664.20
2022-12-03T19:59:04.513Z,101666.10
2022-12-03T20:01:34.115Z,101667.64
2022-12-03T20:04:02.747Z,101668.66
2022-12-03T20:06:33.569Z,101673.30
2022-12-03T20:09:03.863Z,101673.65
2022-12-03T20:11:32.793Z,101675.71
2022-12-03T20:14:03.099Z,101663.37
2022-12-03T20:16:30.391Z,101674.17
2022-12-03T20:19:03.513Z,101674.86
2022-12-03T20:21:32.524Z,101677.78
2022-12-03T20:24:00.682Z,101683.27
2022-12-03T20:26:28.217Z,101684.82
2022-12-03T20:28:56.604Z,101671.30
2022-12-03T20:31:26.588Z,101683.11
2022-12-03T20:33:56.100Z,101688.95
2022-12-03T20:36:23.846Z,101687.06
2022-12-03T20:39:05.047Z,101691.70
2022-12-03T20:41:35.406Z,101695.48
2022-12-03T20:44:05.424Z,101693.77
2022-12-03T20:46:35.618Z,101696.84
2022-12-03T20:49:02.571Z,101702.67
2022-12-03T20:51:31.107Z,101701.83
2022-12-03T20:53:59.976Z,101699.94
2022-12-03T20:56:30.739Z,101701.48
2022-12-03T20:59:05.131Z,101703.02
2022-12-03T21:01:32.817Z,101702.68
2022-12-03T21:03:59.926Z,101705.08
2022-12-03T21:06:29.342Z,101704.06
2022-12-03T21:08:58.028Z,101703.73
2022-12-03T21:11:29.123Z,101708.17
2022-12-03T21:13:56.506Z,101708.70
2022-12-03T21:16:51.885Z,101706.97
2022-12-03T21:19:13.606Z,101708.17
2022-12-03T21:21:40.373Z,101712.11
2022-12-03T21:24:08.550Z,101713.15
2022-12-03T21:26:35.604Z,101711.42
2022-12-03T21:29:02.419Z,101709.73
2022-12-03T21:31:31.014Z,101706.12
2022-12-03T21:33:58.197Z,101708.51
2022-12-03T21:36:25.392Z,101704.23
2022-12-03T21:38:52.497Z,101702.34
2022-12-03T21:41:19.322Z,101704.39
2022-12-03T21:43:52.338Z,101704.74
2022-12-03T21:47:12.968Z,101707.33
2022-12-03T21:49:06.329Z,101709.55
2022-12-03T21:51:33.096Z,101709.38
2022-12-03T21:53:59.979Z,101706.45
2022-12-03T21:56:26.796Z,101705.43
2022-12-03T21:58:54.350Z,101703.89
2022-12-03T22:01:23.597Z,101697.20
2022-12-03T22:03:50.929Z,101697.03
2022-12-03T22:06:18.235Z,101687.44
2022-12-03T22:08:45.591Z,101687.42
2022-12-03T22:11:18.601Z,101687.95
2022-12-03T22:13:45.937Z,101694.80
2022-12-03T22:16:17.113Z,101691.20
2022-12-03T22:18:44.254Z,101693.61
2022-12-03T22:21:13.929Z,101688.48
2022-12-03T22:23:41.323Z,101692.23
2022-12-03T22:26:11.939Z,101693.27
2022-12-03T22:28:42.642Z,101690.52
2022-12-03T22:31:10.021Z,101689.84
2022-12-03T22:33:37.630Z,101691.20
2022-12-03T22:36:07.104Z,101689.50
2022-12-03T22:38:34.287Z,101688.80
2022-12-03T22:41:05.693Z,101681.10
2022-12-03T22:43:33.112Z,101679.21
2022-12-03T22:46:00.189Z,101679.89
2022-12-03T22:48:27.107Z,101681.09
2022-12-03T22:50:53.967Z,101683.33
2022-12-03T22:53:21.179Z,101682.64
2022-12-03T22:55:56.449Z,101685.04
2022-12-03T22:58:25.254Z,101685.36
2022-12-03T23:00:52.621Z,101680.75
2022-12-03T23:03:20.144Z,101679.22
2022-12-03T23:05:47.029Z,101675.10
2022-12-03T23:08:17.142Z,101671.34
2022-12-03T23:10:46.529Z,101663.11
2022-12-03T23:13:14.145Z,101661.56
2022-12-03T23:15:49.991Z,101665.85
2022-12-03T23:18:18.501Z,101674.94
2022-12-03T23:20:54.002Z,101676.11
2022-12-03T23:23:23.673Z,101670.14
2022-12-03T23:26:17.257Z,101670.30
2022-12-03T23:28:46.238Z,101669.45
2022-12-03T23:31:20.822Z,101671.84
2022-12-03T23:33:47.674Z,101671.83
2022-12-03T23:36:15.277Z,101669.60
2022-12-03T23:38:42.774Z,101666.88
2022-12-03T23:41:12.967Z,101652.14
2022-12-03T23:43:40.483Z,101657.80
2022-12-03T23:46:13.460Z,101661.90
2022-12-03T23:48:41.399Z,101670.98
2022-12-03T23:51:10.882Z,101670.30
2022-12-03T23:53:38.822Z,101673.89
2022-12-03T23:56:07.095Z,101674.06
2022-12-03T23:58:34.167Z,101677.15
